createdAt,value
2019-03-04T00:02:06.510Z,37.10
2019-03-04T00:04:32.471Z,37.30
2019-03-04T00:06:58.474Z,37.10
2019-03-04T00:09:24.411Z,37.10
2019-03-04T00:11:50.355Z,37.20
2019-03-04T00:14:16.342Z,37.20
2019-03-04T00:16:42.281Z,37.10
2019-03-04T00:19:08.237Z,37.20
2019-03-04T00:21:34.160Z,37.20
2019-03-04T00:24:00.236Z,37.20
2019-03-04T00:26:26.262Z,37.20
2019-03-04T00:28:52.249Z,37.20
2019-03-04T00:31:18.166Z,37.20
2019-03-04T00:33:44.134Z,37.20
2019-03-04T00:36:10.082Z,37.20
2019-03-04T00:38:36.034Z,37.20
2019-03-04T00:41:01.977Z,37.20
2019-03-04T00:43:27.928Z,37.20
2019-03-04T00:45:53.891Z,37.30
2019-03-04T00:48:19.846Z,37.30
2019-03-04T00:50:45.896Z,37.30
2019-03-04T00:53:11.870Z,37.30
2019-03-04T00:55:37.828Z,37.30
2019-03-04T00:58:03.784Z,37.30
2019-03-04T01:00:29.729Z,37.30
2019-03-04T01:02:55.666Z,37.40
2019-03-04T01:05:21.620Z,37.40
2019-03-04T01:07:47.586Z,37.40
2019-03-04T01:10:13.647Z,37.40
2019-03-04T01:12:39.600Z,37.50
2019-03-04T01:15:05.524Z,37.40
2019-03-04T01:17:31.487Z,37.40
2019-03-04T01:19:57.418Z,37.40
2019-03-04T01:22:23.866Z,37.40
2019-03-04T01:24:49.884Z,37.50
2019-03-04T01:27:15.838Z,37.50
2019-03-04T01:29:41.768Z,37.40
2019-03-04T01:32:07.734Z,37.40
2019-03-04T01:34:33.756Z,37.50
2019-03-04T01:36:59.713Z,37.50
2019-03-04T01:39:25.662Z,37.50
2019-03-04T01:41:51.595Z,37.40
2019-03-04T01:44:17.551Z,37.50
2019-03-04T01:46:43.503Z,37.50
2019-03-04T01:49:09.460Z,37.30
2019-03-04T01:51:35.380Z,37.50
2019-03-04T01:54:01.360Z,37.50
2019-03-04T01:56:27.299Z,37.50
2019-03-04T01:58:53.243Z,37.50
2019-03-04T02:01:19.179Z,37.60
2019-03-04T02:03:45.163Z,37.50
2019-03-04T02:06:11.101Z,37.40
2019-03-04T02:08:37.058Z,37.50
2019-03-04T02:11:02.993Z,37.60
2019-03-04T02:13:28.943Z,37.50
2019-03-04T02:15:54.907Z,37.50
2019-03-04T02:18:20.856Z,37.60
2019-03-04T02:20:46.805Z,37.60
2019-03-04T02:23:12.742Z,37.60
2019-03-04T02:25:38.743Z,37.60
2019-03-04T02:28:04.763Z,37.60
2019-03-04T02:30:30.728Z,37.60
2019-03-04T02:32:56.685Z,37.60
2019-03-04T02:35:22.735Z,37.60
2019-03-04T02:37:48.690Z,37.60
2019-03-04T02:40:14.639Z,37.60
2019-03-04T02:42:41.315Z,37.60
2019-03-04T02:45:07.281Z,37.60
2019-03-04T02:47:33.242Z,37.90
2019-03-04T02:49:59.171Z,37.50
2019-03-04T02:52:25.134Z,37.50
2019-03-04T02:54:51.086Z,37.50
2019-03-04T02:57:17.070Z,37.50
2019-03-04T02:59:43.024Z,37.50
2019-03-04T03:02:08.973Z,37.50
2019-03-04T03:04:35.019Z,37.50
2019-03-04T03:07:00.966Z,37.50
2019-03-04T03:09:26.934Z,37.50
2019-03-04T03:11:52.901Z,37.50
2019-03-04T03:14:18.948Z,37.40
2019-03-04T03:16:44.987Z,37.40
2019-03-04T03:19:10.951Z,37.50
2019-03-04T03:21:36.913Z,37.40
2019-03-04T03:24:02.878Z,37.40
2019-03-04T03:26:28.909Z,37.40
2019-03-04T03:28:55.016Z,37.40
2019-03-04T03:31:21.175Z,37.40
2019-03-04T03:33:47.277Z,37.40
2019-03-04T03:36:13.308Z,37.40
2019-03-04T03:38:39.392Z,37.40
2019-03-04T03:41:05.425Z,37.40
2019-03-04T03:43:31.562Z,37.50
2019-03-04T03:45:57.646Z,37.40
2019-03-04T03:48:23.886Z,37.30
2019-03-04T03:50:49.993Z,37.40
2019-03-04T03:53:15.946Z,37.30
2019-03-04T03:55:44.210Z,37.50
2019-03-04T03:58:10.588Z,37.70
2019-03-04T04:00:36.673Z,37.30
2019-03-04T04:03:02.624Z,37.30
2019-03-04T04:05:28.667Z,37.30
2019-03-04T04:07:54.589Z,37.30
2019-03-04T04:10:20.569Z,37.30
2019-03-04T04:12:47.518Z,37.30
2019-03-04T04:15:13.585Z,37.00
2019-03-04T04:17:39.541Z,37.30
2019-03-04T04:20:05.605Z,37.70
2019-03-04T04:22:31.931Z,37.30
2019-03-04T04:24:57.979Z,37.30
2019-03-04T04:27:24.034Z,37.30
2019-03-04T04:29:49.981Z,37.30
2019-03-04T04:32:16.034Z,37.30
2019-03-04T04:34:42.006Z,37.30
2019-03-04T04:37:07.949Z,37.30
2019-03-04T04:39:33.891Z,37.30
2019-03-04T04:41:59.852Z,37.30
2019-03-04T04:44:25.912Z,37.30
2019-03-04T04:46:51.850Z,37.30
2019-03-04T04:49:17.821Z,37.30
2019-03-04T04:51:43.755Z,37.30
2019-03-04T04:54:09.720Z,37.20
2019-03-04T04:56:35.681Z,37.30
2019-03-04T04:59:01.624Z,37.20
2019-03-04T05:01:27.566Z,37.30
2019-03-04T05:03:53.512Z,37.30
2019-03-04T05:06:19.466Z,37.30
2019-03-04T05:08:45.423Z,37.20
2019-03-04T05:11:11.350Z,37.30
2019-03-04T05:13:37.311Z,37.20
2019-03-04T05:16:03.247Z,37.20
2019-03-04T05:18:29.189Z,37.30
2019-03-04T05:20:55.144Z,37.20
2019-03-04T05:23:21.191Z,37.30
2019-03-04T05:25:47.538Z,37.20
2019-03-04T05:28:13.596Z,37.20
2019-03-04T05:30:39.555Z,37.20
2019-03-04T05:33:05.543Z,37.30
2019-03-04T05:35:31.586Z,37.30
2019-03-04T05:37:57.522Z,37.30
2019-03-04T05:40:23.481Z,37.30
2019-03-04T05:42:50.244Z,37.30
2019-03-04T05:45:16.217Z,37.30
2019-03-04T05:47:42.155Z,37.30
2019-03-04T05:50:08.125Z,37.30
2019-03-04T05:52:48.772Z,37.30
2019-03-04T05:55:14.738Z,37.30
2019-03-04T05:57:40.680Z,37.30
2019-03-04T06:00:06.832Z,37.30
2019-03-04T06:02:32.784Z,37.30
2019-03-04T06:04:58.748Z,37.30
2019-03-04T06:07:26.615Z,37.30
2019-03-04T06:09:52.592Z,37.30
2019-03-04T06:12:18.683Z,37.30
2019-03-04T06:14:44.618Z,37.30
2019-03-04T06:17:10.553Z,37.30
2019-03-04T06:19:36.498Z,37.30
2019-03-04T06:22:02.454Z,37.30
2019-03-04T06:24:28.407Z,37.20
2019-03-04T06:26:54.342Z,37.80
2019-03-04T06:29:20.293Z,37.30
2019-03-04T06:31:46.302Z,37.30
2019-03-04T06:34:12.262Z,37.30
2019-03-04T06:36:38.203Z,37.30
2019-03-04T06:39:04.347Z,37.30
2019-03-04T06:41:30.333Z,37.20
2019-03-04T06:43:56.283Z,37.30
2019-03-04T06:46:22.262Z,37.20
2019-03-04T06:48:48.205Z,37.20
2019-03-04T06:51:14.147Z,37.20
2019-03-04T06:53:40.094Z,37.20
2019-03-04T06:56:06.027Z,37.20
2019-03-04T06:58:31.966Z,37.20
2019-03-04T07:00:57.893Z,37.20
2019-03-04T07:03:23.836Z,37.20
2019-03-04T07:05:50.074Z,37.20
2019-03-04T07:08:16.015Z,37.10
2019-03-04T07:10:41.963Z,37.10
2019-03-04T07:13:08.005Z,37.10
2019-03-04T07:15:33.991Z,37.20
2019-03-04T07:17:59.957Z,37.10
2019-03-04T07:20:25.917Z,37.10
2019-03-04T07:22:51.841Z,37.10
2019-03-04T07:25:17.797Z,37.10
2019-03-04T07:27:44.387Z,37.10
2019-03-04T07:30:10.524Z,37.10
2019-03-04T07:32:36.490Z,37.70
2019-03-04T07:35:02.451Z,37.10
2019-03-04T07:37:28.373Z,37.10
2019-03-04T07:39:54.331Z,37.00
2019-03-04T07:42:20.273Z,37.00
2019-03-04T07:44:46.214Z,37.00
2019-03-04T07:47:12.161Z,36.90
2019-03-04T07:49:38.125Z,36.90
2019-03-04T07:52:04.052Z,36.90
2019-03-04T07:54:30.004Z,36.90
2019-03-04T07:56:56.109Z,36.90
2019-03-04T07:59:22.066Z,36.90
2019-03-04T08:01:48.021Z,36.90
2019-03-04T08:04:14.063Z,36.90
2019-03-04T08:06:40.038Z,36.80
2019-03-04T08:09:06.008Z,36.90
2019-03-04T08:11:32.051Z,36.90
2019-03-04T08:13:57.986Z,36.90
2019-03-04T08:16:23.958Z,36.90
2019-03-04T08:18:49.900Z,36.90
2019-03-04T08:21:15.880Z,37.00
2019-03-04T08:23:41.958Z,36.90
2019-03-04T08:26:08.011Z,36.90
2019-03-04T08:28:33.954Z,37.00
2019-03-04T08:30:59.900Z,36.90
2019-03-04T08:33:25.865Z,36.90
2019-03-04T08:35:51.827Z,37.00
2019-03-04T08:38:17.787Z,36.90
2019-03-04T08:40:43.753Z,36.90
2019-03-04T08:43:09.831Z,36.90
2019-03-04T08:45:35.785Z,36.90
2019-03-04T08:48:02.121Z,37.00
2019-03-04T08:50:28.281Z,37.00
2019-03-04T08:52:55.852Z,36.90
2019-03-04T08:55:22.002Z,36.90
2019-03-04T08:57:48.074Z,37.00
2019-03-04T09:00:14.156Z,37.00
2019-03-04T09:02:40.356Z,37.10
2019-03-04T09:05:06.405Z,37.10
2019-03-04T09:07:32.357Z,37.10
2019-03-04T09:09:58.312Z,37.10
2019-03-04T09:12:24.787Z,37.10
2019-03-04T09:14:50.730Z,37.10
2019-03-04T09:17:16.681Z,37.10
2019-03-04T09:19:42.983Z,37.10
2019-03-04T09:22:09.614Z,37.00
2019-03-04T09:24:35.646Z,37.00
2019-03-04T09:27:01.690Z,37.00
2019-03-04T09:29:27.616Z,37.10
2019-03-04T09:31:53.558Z,37.00
2019-03-04T09:34:19.525Z,37.10
2019-03-04T09:36:46.597Z,37.10
2019-03-04T09:39:14.017Z,37.00
2019-03-04T09:41:39.980Z,37.10
2019-03-04T09:44:05.952Z,37.00
2019-03-04T09:46:31.916Z,37.00
2019-03-04T09:48:57.956Z,37.00
2019-03-04T09:51:24.761Z,37.00
2019-03-04T09:53:50.876Z,37.10
2019-03-04T09:56:16.836Z,37.00
2019-03-04T09:58:42.769Z,37.10
2019-03-04T10:01:08.728Z,37.10
2019-03-04T10:03:34.665Z,37.00
2019-03-04T10:06:00.628Z,37.00
2019-03-04T10:08:32.789Z,37.00
2019-03-04T10:10:54.466Z,37.00
2019-03-04T10:13:20.450Z,37.10
2019-03-04T10:15:46.417Z,37.10
2019-03-04T10:18:12.680Z,37.00
2019-03-04T10:20:38.640Z,37.00
2019-03-04T10:23:04.587Z,37.00
2019-03-04T10:25:30.542Z,37.00
2019-03-04T10:27:56.484Z,37.10
2019-03-04T10:30:22.442Z,37.10
2019-03-04T10:32:48.397Z,37.10
2019-03-04T10:35:14.376Z,37.10
2019-03-04T10:37:40.332Z,37.00
2019-03-04T10:40:06.402Z,37.00
2019-03-04T10:42:41.172Z,37.40
2019-03-04T10:45:07.122Z,37.00
2019-03-04T10:47:33.060Z,37.00
2019-03-04T10:49:59.043Z,37.10
2019-03-04T10:52:25.314Z,37.00
2019-03-04T10:54:51.275Z,37.00
2019-03-04T10:57:17.232Z,37.10
2019-03-04T10:59:43.196Z,37.00
2019-03-04T11:02:09.137Z,37.00
2019-03-04T11:04:35.128Z,37.00
2019-03-04T11:07:01.157Z,37.00
2019-03-04T11:09:27.094Z,37.10
2019-03-04T11:11:53.063Z,37.00
2019-03-04T11:14:19.071Z,37.00
2019-03-04T11:16:45.081Z,37.10
2019-03-04T11:19:11.042Z,37.00
2019-03-04T11:21:37.036Z,37.00
2019-03-04T11:24:04.071Z,37.00
2019-03-04T11:26:30.023Z,37.00
2019-03-04T11:28:55.971Z,37.00
2019-03-04T11:31:21.934Z,37.00
2019-03-04T11:33:47.893Z,37.00
2019-03-04T11:36:13.849Z,37.00
2019-03-04T11:38:39.803Z,37.00
2019-03-04T11:41:05.974Z,37.00
2019-03-04T11:43:32.061Z,37.00
2019-03-04T11:45:57.994Z,37.00
2019-03-04T11:48:23.932Z,36.90
2019-03-04T11:50:49.893Z,37.00
2019-03-04T11:53:15.843Z,36.90
2019-03-04T11:55:41.899Z,36.90
2019-03-04T11:58:07.938Z,36.90
2019-03-04T12:00:38.995Z,36.90
2019-03-04T12:03:04.932Z,36.90
2019-03-04T12:05:30.896Z,36.90
2019-03-04T12:07:56.924Z,36.90
2019-03-04T12:10:22.883Z,36.90
2019-03-04T12:12:48.824Z,36.90
2019-03-04T12:15:14.784Z,36.90
2019-03-04T12:17:40.750Z,36.90
2019-03-04T12:20:06.824Z,36.90
2019-03-04T12:22:33.446Z,36.90
2019-03-04T12:24:59.407Z,36.90
2019-03-04T12:27:25.445Z,37.30
2019-03-04T12:29:51.531Z,36.90
2019-03-04T12:32:18.049Z,36.90
2019-03-04T12:34:43.995Z,36.80
2019-03-04T12:37:09.951Z,36.90
2019-03-04T12:39:35.922Z,36.90
2019-03-04T12:42:01.852Z,36.90
2019-03-04T12:44:27.786Z,36.80
2019-03-04T12:46:53.727Z,36.80
2019-03-04T12:49:19.674Z,36.80
2019-03-04T12:51:45.613Z,36.90
2019-03-04T12:54:11.543Z,36.90
2019-03-04T12:56:37.502Z,36.80
2019-03-04T12:59:03.566Z,36.90
2019-03-04T13:01:29.513Z,36.80
2019-03-04T13:03:55.478Z,36.80
2019-03-04T13:06:21.415Z,36.80
2019-03-04T13:08:47.383Z,36.90
2019-03-04T13:11:13.322Z,36.80
2019-03-04T13:13:39.292Z,36.80
2019-03-04T13:16:05.247Z,36.80
2019-03-04T13:18:31.222Z,36.80
2019-03-04T13:20:57.184Z,36.90
2019-03-04T13:23:23.152Z,37.00
2019-03-04T13:25:49.089Z,37.00
2019-03-04T13:28:15.094Z,36.90
2019-03-04T13:30:41.139Z,36.90
2019-03-04T13:33:07.104Z,37.60
2019-03-04T13:35:33.066Z,37.00
2019-03-04T13:37:59.116Z,36.90
2019-03-04T13:40:25.156Z,36.90
2019-03-04T13:42:51.111Z,36.90
2019-03-04T13:45:17.176Z,36.90
2019-03-04T13:47:43.906Z,36.80
2019-03-04T13:50:09.980Z,37.50
2019-03-04T13:52:36.174Z,36.80
2019-03-04T13:55:02.244Z,36.80
2019-03-04T13:57:28.202Z,36.80
2019-03-04T13:59:54.260Z,36.80
2019-03-04T14:02:20.210Z,36.80
2019-03-04T14:04:46.161Z,36.80
2019-03-04T14:07:12.099Z,36.80
2019-03-04T14:09:38.044Z,36.90
2019-03-04T14:12:03.980Z,36.80
2019-03-04T14:14:29.916Z,36.80
2019-03-04T14:16:55.870Z,36.70
2019-03-04T14:19:21.801Z,36.80
2019-03-04T14:21:47.786Z,36.70
2019-03-04T14:24:13.739Z,36.80
2019-03-04T14:26:39.698Z,36.80
2019-03-04T14:29:05.652Z,36.70
2019-03-04T14:31:31.638Z,36.80
2019-03-04T14:33:57.684Z,36.80
2019-03-04T14:36:23.682Z,36.80
2019-03-04T14:38:49.645Z,36.70
2019-03-04T14:41:15.597Z,36.80
2019-03-04T14:43:41.562Z,36.80
2019-03-04T14:46:07.514Z,36.80
2019-03-04T14:48:33.448Z,36.80
2019-03-04T14:50:59.487Z,36.70
2019-03-04T14:53:25.500Z,36.80
2019-03-04T14:55:51.460Z,36.70
2019-03-04T14:58:17.433Z,36.70
2019-03-04T15:00:45.384Z,36.70
2019-03-04T15:03:19.914Z,36.80
2019-03-04T15:05:39.210Z,36.70
2019-03-04T15:08:05.145Z,36.70
2019-03-04T15:10:31.118Z,36.80
2019-03-04T15:12:57.097Z,36.70
2019-03-04T15:15:23.144Z,36.80
2019-03-04T15:17:49.114Z,36.70
2019-03-04T15:20:15.044Z,36.70
2019-03-04T15:22:41.102Z,36.70
2019-03-04T15:25:07.048Z,36.80
2019-03-04T15:27:33.074Z,36.80
2019-03-04T15:29:59.032Z,36.70
2019-03-04T15:32:25.088Z,36.30
2019-03-04T15:34:51.052Z,36.90
2019-03-04T15:37:16.988Z,36.80
2019-03-04T15:39:42.950Z,36.80
2019-03-04T15:42:08.890Z,36.80
2019-03-04T15:44:34.866Z,37.00
2019-03-04T15:47:00.914Z,37.20
2019-03-04T15:49:26.898Z,36.80
2019-03-04T15:51:52.952Z,36.80
2019-03-04T15:54:19.018Z,36.90
2019-03-04T15:56:44.989Z,36.90
2019-03-04T15:59:10.940Z,36.90
2019-03-04T16:01:36.889Z,36.90
2019-03-04T16:04:02.852Z,36.90
2019-03-04T16:06:28.846Z,36.90
2019-03-04T16:08:54.783Z,36.80
2019-03-04T16:11:20.749Z,37.50
2019-03-04T16:13:52.979Z,36.80
2019-03-04T16:16:14.586Z,36.90
2019-03-04T16:18:40.517Z,36.90
2019-03-04T16:21:06.496Z,36.90
2019-03-04T16:23:32.540Z,36.90
2019-03-04T16:25:58.599Z,36.70
2019-03-04T16:28:24.559Z,36.80
2019-03-04T16:30:50.517Z,36.70
2019-03-04T16:33:16.601Z,36.70
2019-03-04T16:35:42.563Z,36.70
2019-03-04T16:38:08.632Z,36.70
2019-03-04T16:40:34.583Z,36.70
2019-03-04T16:43:00.543Z,36.70
2019-03-04T16:45:26.508Z,36.60
2019-03-04T16:47:52.599Z,36.60
2019-03-04T16:50:18.671Z,36.60
2019-03-04T16:52:45.163Z,36.70
2019-03-04T16:55:11.139Z,36.60
2019-03-04T16:57:37.188Z,36.70
2019-03-04T17:00:03.156Z,36.70
2019-03-04T17:02:29.741Z,36.70
2019-03-04T17:04:55.678Z,36.70
2019-03-04T17:07:21.622Z,36.60
2019-03-04T17:09:47.580Z,36.60
2019-03-04T17:12:13.517Z,36.70
2019-03-04T17:14:39.461Z,36.70
2019-03-04T17:17:05.393Z,36.70
2019-03-04T17:19:31.430Z,36.70
2019-03-04T17:21:57.383Z,36.70
2019-03-04T17:24:23.333Z,36.90
2019-03-04T17:26:49.292Z,36.70
2019-03-04T17:29:15.345Z,36.60
2019-03-04T17:31:41.338Z,36.70
2019-03-04T17:34:07.300Z,36.70
2019-03-04T17:36:33.243Z,36.60
2019-03-04T17:38:59.207Z,36.60
2019-03-04T17:41:25.169Z,36.60
2019-03-04T17:43:51.221Z,36.60
2019-03-04T17:46:17.218Z,36.60
2019-03-04T17:48:43.159Z,36.60
2019-03-04T17:51:09.106Z,36.60
2019-03-04T17:53:35.075Z,36.60
2019-03-04T17:56:01.035Z,36.60
2019-03-04T17:58:26.981Z,36.50
2019-03-04T18:00:54.827Z,36.50
2019-03-04T18:03:20.800Z,36.50
2019-03-04T18:05:46.755Z,36.60
2019-03-04T18:08:12.733Z,36.60
2019-03-04T18:10:38.681Z,36.60
2019-03-04T18:13:04.739Z,36.60
2019-03-04T18:15:30.712Z,36.60
2019-03-04T18:17:56.672Z,36.50
2019-03-04T18:20:22.618Z,36.60
2019-03-04T18:22:49.261Z,36.50
2019-03-04T18:25:15.233Z,36.50
2019-03-04T18:27:41.171Z,36.50
2019-03-04T18:30:07.168Z,36.50
2019-03-04T18:32:33.778Z,36.40
2019-03-04T18:34:59.724Z,36.40
2019-03-04T18:37:25.671Z,36.40
2019-03-04T18:39:51.617Z,36.40
2019-03-04T18:42:18.075Z,36.50
2019-03-04T18:44:44.030Z,36.50
2019-03-04T18:47:09.999Z,36.50
2019-03-04T18:49:35.943Z,36.50
2019-03-04T18:52:01.926Z,36.50
2019-03-04T18:54:27.974Z,36.50
2019-03-04T18:56:53.925Z,36.50
2019-03-04T18:59:19.870Z,36.50
2019-03-04T19:01:45.856Z,36.50
2019-03-04T19:04:11.808Z,36.60
2019-03-04T19:06:37.758Z,36.50
2019-03-04T19:09:04.340Z,36.60
2019-03-04T19:11:30.290Z,36.60
2019-03-04T19:13:56.242Z,36.50
2019-03-04T19:16:22.218Z,36.50
2019-03-04T19:18:48.480Z,36.50
2019-03-04T19:21:14.435Z,36.60
2019-03-04T19:23:40.484Z,36.60
2019-03-04T19:26:06.446Z,36.40
2019-03-04T19:28:32.480Z,36.50
2019-03-04T19:30:58.429Z,36.50
2019-03-04T19:33:24.393Z,36.50
2019-03-04T19:35:50.330Z,36.60
2019-03-04T19:38:16.312Z,36.60
2019-03-04T19:40:42.398Z,36.50
2019-03-04T19:43:08.432Z,36.40
2019-03-04T19:45:34.532Z,36.40
2019-03-04T19:48:00.620Z,36.30
2019-03-04T19:50:26.661Z,36.40
2019-03-04T19:52:52.721Z,36.30
2019-03-04T19:55:18.662Z,36.40
2019-03-04T19:57:44.610Z,36.30
2019-03-04T20:00:10.906Z,36.20
2019-03-04T20:02:37.544Z,36.20
2019-03-04T20:05:03.598Z,36.30
2019-03-04T20:07:29.574Z,36.30
2019-03-04T20:09:55.625Z,36.20
2019-03-04T20:12:21.669Z,36.20
2019-03-04T20:14:47.619Z,36.20
2019-03-04T20:17:13.545Z,36.10
2019-03-04T20:19:39.519Z,36.10
2019-03-04T20:22:05.588Z,36.10
2019-03-04T20:24:31.535Z,36.10
2019-03-04T20:26:57.487Z,36.00
2019-03-04T20:29:23.439Z,36.00
2019-03-04T20:31:49.406Z,36.00
2019-03-04T20:34:15.359Z,36.10
2019-03-04T20:36:41.346Z,36.10
2019-03-04T20:39:09.163Z,36.00
2019-03-04T20:41:35.360Z,36.10
2019-03-04T20:44:01.305Z,36.00
2019-03-04T20:46:27.398Z,36.00
2019-03-04T20:48:53.424Z,36.00
2019-03-04T20:51:19.391Z,36.00
2019-03-04T20:53:45.452Z,36.60
2019-03-04T20:56:11.425Z,36.00
2019-03-04T20:58:37.460Z,36.00
2019-03-04T21:01:03.431Z,35.90
2019-03-04T21:03:34.844Z,36.00
2019-03-04T21:05:57.548Z,35.90
2019-03-04T21:08:23.516Z,35.60
2019-03-04T21:10:51.112Z,35.90
2019-03-04T21:13:19.257Z,36.00
2019-03-04T21:15:45.230Z,36.00
2019-03-04T21:18:11.278Z,36.00
2019-03-04T21:20:37.343Z,36.10
2019-03-04T21:23:03.411Z,36.10
2019-03-04T21:25:29.389Z,36.20
2019-03-04T21:27:55.345Z,36.20
2019-03-04T21:30:21.482Z,36.20
2019-03-04T21:32:48.354Z,36.10
2019-03-04T21:35:14.403Z,36.20
2019-03-04T21:37:40.377Z,36.20
2019-03-04T21:40:06.420Z,36.20
2019-03-04T21:42:32.478Z,36.30
2019-03-04T21:45:00.045Z,36.20
2019-03-04T21:47:26.278Z,36.40
2019-03-04T21:49:52.218Z,36.30
2019-03-04T21:52:20.586Z,36.20
2019-03-04T21:54:46.018Z,36.30
2019-03-04T21:57:12.019Z,36.30
2019-03-04T21:59:37.964Z,36.30
2019-03-04T22:02:03.907Z,36.30
2019-03-04T22:04:29.839Z,36.30
2019-03-04T22:06:55.834Z,36.30
2019-03-04T22:09:21.962Z,36.30
2019-03-04T22:11:47.923Z,36.30
2019-03-04T22:14:13.871Z,36.30
2019-03-04T22:16:39.852Z,36.30
2019-03-04T22:19:05.878Z,36.20
2019-03-04T22:21:31.816Z,36.20
2019-03-04T22:23:57.766Z,36.10
2019-03-04T22:26:23.721Z,36.20
2019-03-04T22:28:49.670Z,36.20
2019-03-04T22:31:15.707Z,36.20
2019-03-04T22:33:41.671Z,36.30
2019-03-04T22:36:07.598Z,36.20
2019-03-04T22:38:33.658Z,36.20
2019-03-04T22:40:59.622Z,36.30
2019-03-04T22:43:25.604Z,36.30
2019-03-04T22:45:51.663Z,36.30
2019-03-04T22:48:17.688Z,36.20
2019-03-04T22:50:43.661Z,36.20
2019-03-04T22:53:09.701Z,36.30
2019-03-04T22:55:35.736Z,36.30
2019-03-04T22:58:01.830Z,36.30
2019-03-04T23:00:29.794Z,36.90
2019-03-04T23:02:55.887Z,36.30
2019-03-04T23:05:21.926Z,36.40
2019-03-04T23:07:47.894Z,36.30
2019-03-04T23:10:13.840Z,36.40
2019-03-04T23:12:39.814Z,36.30
2019-03-04T23:15:05.754Z,36.40
2019-03-04T23:17:32.156Z,36.50
2019-03-04T23:19:58.596Z,36.40
2019-03-04T23:22:26.232Z,36.50
2019-03-04T23:24:52.200Z,36.50
2019-03-04T23:27:18.247Z,36.30
2019-03-04T23:29:44.312Z,36.40
2019-03-04T23:32:10.257Z,36.50
2019-03-04T23:34:36.194Z,36.40
2019-03-04T23:37:02.176Z,36.40
2019-03-04T23:39:28.132Z,36.50
2019-03-04T23:41:54.186Z,36.40
2019-03-04T23:44:20.242Z,36.40
2019-03-04T23:46:46.187Z,36.40
2019-03-04T23:49:12.170Z,36.40
2019-03-04T23:51:38.137Z,36.40
2019-03-04T23:54:04.176Z,36.50
2019-03-04T23:56:30.141Z,36.50
2019-03-04T23:58:56.088Z,36.60
